Aérodrome :
LOGIN :

S'inscrire | Disclaimer

   EN    FR    IT 

 










Légende :    VFR   VFR Marginal   IFR   IFR Intensif   IFR Très Intensif
Visi : 
Plafond : 
>= 8 km
>= 3000ft
5 à 8 km
1000 à 3000 ft
1500m à 5 km
500 à 1000 ft
800 à 1500m
200 à 500 ft
< 800m
< 200 ft
Symboles :   Orages  Brouillard  Fortes neiges  Fortes précipitations  Vent > 20 kt
SIGMETs :   Divers  Orages  Givrage  Turbulence  Onde Orograph.  Cendres Volcan.






- Altitude de l'aérodrome : 1585 ft
- Code IATA : SIR


LSGS - Sion

DERNIER METAR :
  • 190720Z VRB03KT CAVOK 24/14 Q1015

METARs EXPIRÉS :
  • 190650Z 09003KT 050V120 CAVOK 23/13 Q1015
  • 190620Z 09004KT 050V120 CAVOK 22/14 Q1015
  • 190550Z 08005KT CAVOK 21/13 Q1015
  • 190520Z 09003KT 060V120 CAVOK 18/13 Q1015
  • 190450Z 08003KT CAVOK 16/13 Q1015
  • 190420Z AUTO 00000KT CAVOK 16/13 Q1015
  • 190350Z AUTO 00000KT CAVOK 16/12 Q1014
  • 190320Z AUTO VRB01KT CAVOK 16/12 Q1014
  • 190250Z AUTO 00000KT CAVOK 16/13 Q1014

TAF TAF LSGS
Valide du 19 à 06h jusqu'au 19 à 15h UTC


190525Z 1906/1915 VRB02KT CAVOK
BECMG 1910/1912 25010KT FEW080



MET'MAP, la Météo Aéronautique d'un coup d'oeil ! - Copyright ORBIFLY Décembre 2007 - Disclaimer

ORBIFLY MET'MAP TEAM :

Programmation & Développement : Alexandra Zaïnal
Sur une idée originale de : Baudouin d'Aumeries
Soutien technique & logistique : Manuel Goepfert
Assistance : Marc-Olivier Méhu




SOURCES & CREDITS :

   NOAA